Portada
METAR-TAF:

METAR-TAF

Aeropuertos :

Tanegashima, Japón

latitud: 30-33N, longitud: 130-57E, altitud: 92 m

Observación

El informe se hizo hace 54 minutos, a las 06:00 UTC
Viento 18 kt del oeste-noroeste
Temperatura 22°C
Humedad 57%
Presión 1010 hPa
Visibilidad 10 km o más
sin nubes por debajo de 1500 m y sin presencia de cumulonimbus.

METAR: RJFG 280600Z 29018KT CAVOK 22/13 Q1010

Hora: 15:54 (06:54 UTC)


TAF: falta

Observaciones y pronósticos meteorológicos de más de 4000 aeropuertos (mensajes METAR y TAF).

Los puntos amarillos y rojos representan las estaciones disponibles.

Ponga el ratón en el punto deseado para ver el nombre de la estación.

Haga clic para ver las observaciones y los pronósticos meteorológicos.

Para cambiar el mapa : haga clic en los botones verdes con una cruz de color negro para hacer un zoom, en el botón verde con un guión para alejar o en las flechas verdes para mapas adyacentes.


METAR-TAF: